Time;durP1;ratioP1;P1;durP2;ratioP2;P2;SDS_P1;SDS_P2;PMS_P1;PMS_P2;Temp;Humidity;BMP_temperature;BMP_pressure;BME280_temperature;BME280_humidity;BME280_pressure;Samples;Min_cycle;Max_cycle;Signal;HPM_P1;HPM_P2
2023/08/21 00:01:25;;;;;;;4.63;1.80;;;;;;;24.49;55.52;102233.19;5007053;28;20061;-67
2023/08/21 00:03:50;;;;;;;5.57;1.80;;;;;;;24.51;55.54;102241.03;5007354;28;20130;-69
2023/08/21 00:06:15;;;;;;;4.13;1.73;;;;;;;24.51;55.70;102247.22;5007058;28;20038;-66
2023/08/21 00:08:41;;;;;;;4.85;1.60;;;;;;;24.48;55.54;102247.47;5007489;28;20283;-67
2023/08/21 00:11:06;;;;;;;4.50;1.90;;;;;;;24.50;55.38;102247.34;5006743;28;20153;-67
2023/08/21 00:13:32;;;;;;;4.30;1.60;;;;;;;24.48;55.35;102244.81;5006935;28;20026;-67
2023/08/21 00:15:57;;;;;;;4.32;1.70;;;;;;;24.49;55.66;102232.34;5007772;28;20455;-66
2023/08/21 00:18:22;;;;;;;4.83;1.70;;;;;;;24.48;55.63;102228.81;5007243;28;20524;-67
2023/08/21 00:20:47;;;;;;;3.92;1.60;;;;;;;24.47;55.36;102223.63;5007036;28;20274;-69
2023/08/21 00:23:13;;;;;;;4.57;1.50;;;;;;;24.47;55.68;102228.97;5007864;28;20037;-67
2023/08/21 00:25:38;;;;;;;4.80;1.85;;;;;;;24.48;55.23;102223.50;5008412;28;20036;-67
2023/08/21 00:28:04;;;;;;;4.93;1.70;;;;;;;24.46;55.25;102220.13;5008979;28;20525;-66
2023/08/21 00:30:29;;;;;;;5.97;1.80;;;;;;;24.47;55.35;102219.16;5012909;28;20034;-67
2023/08/21 00:32:55;;;;;;;3.88;1.60;;;;;;;24.45;55.26;102218.47;5015443;28;20087;-67
2023/08/21 00:35:20;;;;;;;3.88;1.70;;;;;;;24.45;55.18;102219.28;5008369;28;20045;-68
2023/08/21 00:37:46;;;;;;;5.05;1.67;;;;;;;24.47;55.16;102218.28;5007418;28;20037;-67
2023/08/21 00:40:12;;;;;;;4.15;1.90;;;;;;;24.46;55.26;102212.13;5007374;28;20037;-67
2023/08/21 00:42:37;;;;;;;4.90;1.60;;;;;;;24.44;55.45;102212.25;5008778;28;20040;-67
2023/08/21 00:45:03;;;;;;;4.97;1.70;;;;;;;24.45;55.42;102221.97;5008464;28;20033;-66
2023/08/21 00:47:29;;;;;;;4.78;1.88;;;;;;;24.45;54.86;102219.28;5007831;28;20455;-66
2023/08/21 00:49:55;;;;;;;4.10;1.83;;;;;;;24.45;55.55;102226.47;5007700;28;20087;-68
2023/08/21 00:52:20;;;;;;;5.22;2.00;;;;;;;24.44;55.29;102227.41;5009726;28;20121;-68
2023/08/21 00:54:46;;;;;;;5.60;1.80;;;;;;;24.44;55.46;102228.25;5008805;28;20438;-67
2023/08/21 00:57:12;;;;;;;5.28;1.83;;;;;;;24.44;55.31;102227.41;5008595;28;20130;-67
2023/08/21 00:59:38;;;;;;;5.15;1.70;;;;;;;24.43;55.32;102223.94;5011300;28;20041;-67
2023/08/21 01:02:04;;;;;;;4.70;2.10;;;;;;;24.42;55.14;102234.72;5009978;28;20042;-67
2023/08/21 01:04:29;;;;;;;4.50;1.60;;;;;;;24.42;55.40;102243.53;5009794;28;20037;-67
2023/08/21 01:06:54;;;;;;;4.85;1.42;;;;;;;24.42;55.33;102246.19;5008005;28;20033;-67
2023/08/21 01:09:32;;;;;;;5.75;1.88;;;;;;;24.43;55.45;102233.72;5010314;28;20084;-66
2023/08/21 01:12:15;;;;;;;5.00;1.70;;;;;;;24.40;55.68;102220.66;5012479;28;20120;-67
2023/08/21 01:15:03;;;;;;;4.07;1.60;;;;;;;24.40;55.34;102220.66;5011550;28;20038;-67
2023/08/21 01:17:30;;;;;;;4.40;1.52;;;;;;;24.41;55.33;102214.38;5011315;28;21133;-68
2023/08/21 01:19:56;;;;;;;4.78;1.70;;;;;;;24.40;55.08;102207.34;5010732;28;20037;-67
2023/08/21 01:22:34;;;;;;;5.07;1.80;;;;;;;24.40;55.45;102204.66;5010852;28;20076;-68
2023/08/21 01:25:00;;;;;;;4.18;1.70;;;;;;;24.40;55.52;102199.34;5010121;28;20063;-68
2023/08/21 01:27:25;;;;;;;5.65;1.83;;;;;;;24.41;55.58;102190.38;5010152;28;21094;-67
2023/08/21 01:29:51;;;;;;;4.18;1.75;;;;;;;24.39;55.22;102198.50;5010018;28;20044;-67
2023/08/21 01:32:16;;;;;;;3.83;1.48;;;;;;;24.41;55.12;102191.22;5011633;28;20042;-68
2023/08/21 01:34:41;;;;;;;5.33;1.80;;;;;;;24.39;55.35;102197.69;5010127;28;20503;-67
2023/08/21 01:37:08;;;;;;;5.55;1.90;;;;;;;24.40;55.28;102200.22;5009883;28;20057;-67
2023/08/21 01:39:33;;;;;;;4.63;1.70;;;;;;;24.38;55.54;102201.31;5009929;28;20057;-70
2023/08/21 01:41:59;;;;;;;5.70;1.70;;;;;;;24.39;55.46;102192.34;5010055;28;20710;-70
2023/08/21 01:44:26;;;;;;;5.07;1.70;;;;;;;24.39;55.31;102187.03;5009898;28;20037;-67
2023/08/21 01:46:51;;;;;;;3.25;1.55;;;;;;;24.39;54.91;102197.69;5009980;28;20041;-67
2023/08/21 01:49:19;;;;;;;4.18;1.65;;;;;;;24.38;55.44;102199.47;5009741;28;20034;-67
2023/08/21 01:51:44;;;;;;;5.15;1.80;;;;;;;24.38;55.04;102204.81;5009685;28;20037;-66
2023/08/21 01:54:09;;;;;;;5.40;1.63;;;;;;;24.37;55.25;102208.47;5009875;28;20094;-66
2023/08/21 01:56:36;;;;;;;3.95;1.60;;;;;;;24.38;54.88;102211.97;5009494;28;20041;-65
2023/08/21 01:59:01;;;;;;;4.85;1.50;;;;;;;24.39;55.15;102219.00;5009787;28;20030;-66
2023/08/21 02:01:27;;;;;;;5.05;1.90;;;;;;;24.36;55.45;102220.09;5009708;28;20034;-65
2023/08/21 02:03:52;;;;;;;4.53;1.60;;;;;;;24.37;55.08;102218.25;5010204;28;20116;-67
2023/08/21 02:06:17;;;;;;;4.47;1.67;;;;;;;24.36;54.78;102225.41;5008616;28;20030;-68
2023/08/21 02:08:43;;;;;;;5.18;1.63;;;;;;;24.38;55.25;102219.97;5009534;28;20624;-68
2023/08/21 02:11:08;;;;;;;3.85;1.83;;;;;;;24.36;54.77;102220.09;5008889;28;20042;-67
2023/08/21 02:13:33;;;;;;;3.35;1.40;;;;;;;24.36;55.24;102220.09;5008872;28;20038;-69
2023/08/21 02:15:59;;;;;;;4.63;1.73;;;;;;;24.35;54.84;102221.06;5009046;28;20030;-68
2023/08/21 02:18:24;;;;;;;4.10;1.50;;;;;;;24.34;55.37;102219.38;5009638;28;20605;-69
2023/08/21 02:20:49;;;;;;;4.13;1.45;;;;;;;24.35;55.30;102221.06;5009015;28;20096;-68
2023/08/21 02:23:15;;;;;;;4.28;1.67;;;;;;;24.34;55.00;102215.84;5009126;28;20037;-67
2023/08/21 02:25:41;;;;;;;4.38;1.85;;;;;;;24.33;55.29;102219.53;5008852;28;20072;-67
2023/08/21 02:28:06;;;;;;;5.80;2.00;;;;;;;24.34;55.08;102218.53;5009365;28;20074;-67
2023/08/21 02:30:31;;;;;;;3.90;1.40;;;;;;;24.33;54.80;102219.53;5009915;28;20084;-66
2023/08/21 02:32:57;;;;;;;4.05;1.92;;;;;;;24.31;54.92;102214.31;5008785;28;20271;-69
2023/08/21 02:35:22;;;;;;;4.07;1.30;;;;;;;24.32;54.87;102217.81;5008793;28;20041;-66
2023/08/21 02:37:48;;;;;;;5.30;1.80;;;;;;;24.32;54.96;102212.50;5008905;28;20116;-68
2023/08/21 02:40:13;;;;;;;4.78;2.00;;;;;;;24.32;54.95;102217.81;5007339;28;20053;-65
2023/08/21 02:42:38;;;;;;;4.00;1.70;;;;;;;24.32;54.99;102217.81;5008647;28;20037;-66
2023/08/21 02:45:08;;;;;;;4.28;1.80;;;;;;;24.31;54.69;102213.47;5008445;28;20033;-66
2023/08/21 02:47:40;;;;;;;4.35;1.63;;;;;;;24.29;54.84;102215.41;5008631;28;20096;-66
2023/08/21 02:50:07;;;;;;;5.18;1.67;;;;;;;24.30;54.62;102217.94;5008573;28;20034;-66
2023/08/21 02:52:34;;;;;;;4.93;1.70;;;;;;;24.30;54.69;102214.47;5008627;28;20034;-67
2023/08/21 02:54:59;;;;;;;5.20;1.65;;;;;;;24.29;55.21;102220.75;5008213;28;20092;-68
2023/08/21 02:57:26;;;;;;;3.63;1.90;;;;;;;24.30;54.96;102214.47;5008770;28;20030;-66
2023/08/21 02:59:52;;;;;;;3.60;1.73;;;;;;;24.27;54.69;102213.75;5009455;28;20048;-66
2023/08/21 03:02:18;;;;;;;3.65;1.50;;;;;;;24.29;54.75;102216.25;5008185;28;20038;-67
2023/08/21 03:04:43;;;;;;;3.33;1.40;;;;;;;24.27;54.67;102208.44;5008328;28;20067;-65
2023/08/21 03:07:09;;;;;;;4.32;1.70;;;;;;;24.25;54.66;102215.69;5007123;28;20026;-67
2023/08/21 03:09:34;;;;;;;3.60;1.75;;;;;;;24.27;55.15;102210.22;5008361;28;20038;-66
2023/08/21 03:11:59;;;;;;;4.70;1.60;;;;;;;24.27;55.03;102211.09;5008298;28;20041;-66
2023/08/21 03:14:26;;;;;;;3.97;1.90;;;;;;;24.25;54.74;102207.69;5006976;28;20037;-64
2023/08/21 03:16:52;;;;;;;4.35;1.70;;;;;;;24.26;54.70;102208.56;5008120;28;20033;-66
2023/08/21 03:19:17;;;;;;;3.67;1.45;;;;;;;24.26;54.87;102214.72;5008846;28;20050;-66
2023/08/21 03:21:42;;;;;;;4.65;1.85;;;;;;;24.26;54.81;102217.38;5008477;28;20030;-67
2023/08/21 03:24:08;;;;;;;3.90;1.67;;;;;;;24.26;55.09;102219.22;5007973;28;20080;-68
2023/08/21 03:26:33;;;;;;;5.95;1.75;;;;;;;24.24;54.97;102216.69;5008147;28;20025;-66
2023/08/21 03:28:59;;;;;;;5.32;2.00;;;;;;;24.24;55.01;102215.81;5007157;28;20030;-68
2023/08/21 03:31:24;;;;;;;4.45;1.63;;;;;;;24.24;54.92;102222.00;5008246;28;20030;-67
2023/08/21 03:33:49;;;;;;;3.63;1.65;;;;;;;24.23;54.91;102220.31;5007650;28;20445;-70
2023/08/21 03:36:15;;;;;;;5.10;1.70;;;;;;;24.24;54.49;102226.47;5007891;28;20072;-68
2023/08/21 03:38:40;;;;;;;4.05;1.80;;;;;;;24.23;54.55;102219.47;5007636;28;20041;-65
2023/08/21 03:41:05;;;;;;;5.20;2.00;;;;;;;24.23;54.80;102222.97;5007599;28;20030;-67
2023/08/21 03:43:32;;;;;;;3.92;1.70;;;;;;;24.23;54.66;102208.81;5008220;28;20117;-66
2023/08/21 03:45:57;;;;;;;5.32;1.50;;;;;;;24.23;54.71;102212.31;5007815;28;20058;-66
2023/08/21 03:48:22;;;;;;;3.47;1.80;;;;;;;24.22;54.42;102217.78;5007663;28;20517;-68
2023/08/21 03:50:49;;;;;;;4.35;1.80;;;;;;;24.21;54.55;102213.41;5007442;28;20398;-67
2023/08/21 03:53:14;;;;;;;5.03;1.98;;;;;;;24.22;54.84;102215.13;5007489;28;20034;-68
2023/08/21 03:55:40;;;;;;;5.15;1.92;;;;;;;24.21;54.65;102216.94;5008106;28;20033;-69
2023/08/21 03:58:05;;;;;;;4.35;1.58;;;;;;;24.22;54.37;102212.44;5007974;28;20034;-67
2023/08/21 04:00:30;;;;;;;4.43;1.67;;;;;;;24.22;54.79;102215.13;5007952;28;20030;-66
2023/08/21 04:02:56;;;;;;;4.47;1.88;;;;;;;24.20;54.65;102204.59;5007401;28;20072;-68
2023/08/21 04:05:21;;;;;;;4.13;1.85;;;;;;;24.20;54.68;102201.09;5007382;28;20528;-67
2023/08/21 04:07:46;;;;;;;5.88;2.25;;;;;;;24.19;54.87;102202.88;5007270;28;20026;-66
2023/08/21 04:10:12;;;;;;;4.90;2.00;;;;;;;24.20;54.54;102209.09;5007256;28;20128;-66
2023/08/21 04:12:37;;;;;;;5.15;1.70;;;;;;;24.19;54.83;102210.88;5007443;28;20033;-66
2023/08/21 04:15:03;;;;;;;4.63;1.80;;;;;;;24.19;54.65;102215.38;5006903;28;20087;-68
2023/08/21 04:17:28;;;;;;;4.28;1.70;;;;;;;24.19;54.27;102216.22;5007297;28;20029;-66
2023/08/21 04:19:53;;;;;;;4.70;1.70;;;;;;;24.18;54.59;102227.84;5005948;28;20547;-66
2023/08/21 04:22:19;;;;;;;4.73;1.73;;;;;;;24.18;54.24;102227.84;5007378;28;20408;-66
2023/08/21 04:24:44;;;;;;;4.60;2.00;;;;;;;24.17;54.45;102226.16;5006302;28;20377;-66
2023/08/21 04:27:09;;;;;;;4.35;1.92;;;;;;;24.18;54.49;102237.66;5006782;28;20049;-68
2023/08/21 04:29:35;;;;;;;4.32;1.83;;;;;;;24.18;54.44;102237.66;5007054;28;20042;-66
2023/08/21 04:32:00;;;;;;;4.63;1.73;;;;;;;24.17;54.60;102235.97;5006971;28;20034;-66
2023/08/21 04:34:26;;;;;;;5.07;1.60;;;;;;;24.17;54.54;102235.97;5006262;28;20653;-67
2023/08/21 04:36:52;;;;;;;3.65;1.50;;;;;;;24.18;54.39;102242.97;5006660;28;20034;-65
2023/08/21 04:39:17;;;;;;;4.50;1.55;;;;;;;24.17;54.27;102239.47;5006630;28;20041;-67
2023/08/21 04:41:42;;;;;;;5.97;1.88;;;;;;;24.17;54.83;102239.47;5006743;28;20032;-67
2023/08/21 04:44:08;;;;;;;5.60;1.98;;;;;;;24.17;54.71;102246.63;5005595;28;21132;-68
2023/08/21 04:46:33;;;;;;;3.80;1.77;;;;;;;24.17;54.74;102242.13;5006856;28;20088;-68
2023/08/21 04:48:58;;;;;;;5.03;1.75;;;;;;;24.16;54.36;102252.94;5006256;28;20297;-66
2023/08/21 04:51:24;;;;;;;5.22;1.90;;;;;;;24.15;54.38;102241.44;5006660;28;20030;-66
2023/08/21 04:53:49;;;;;;;4.72;1.60;;;;;;;24.14;54.48;102241.56;5006249;28;20041;-64
2023/08/21 04:56:14;;;;;;;4.28;1.67;;;;;;;24.15;54.47;102246.75;5007073;28;20042;-67
2023/08/21 04:58:40;;;;;;;4.65;1.83;;;;;;;24.16;54.45;102247.59;5006976;28;20034;-65
2023/08/21 05:01:05;;;;;;;4.05;1.60;;;;;;;24.14;54.80;102249.56;5006813;28;20029;-66
2023/08/21 05:03:30;;;;;;;4.75;1.75;;;;;;;24.15;54.34;102243.22;5006772;28;20037;-66
2023/08/21 05:05:56;;;;;;;5.57;1.92;;;;;;;24.16;54.60;102247.59;5006188;28;20030;-67
2023/08/21 05:08:26;;;;;;;4.97;1.83;;;;;;;24.13;54.40;102246.03;5006135;28;20049;-66
2023/08/21 05:10:58;;;;;;;5.13;2.03;;;;;;;24.12;54.59;102249.69;5006047;28;20034;-67
2023/08/21 05:13:23;;;;;;;6.15;1.90;;;;;;;24.13;54.69;102250.53;5006746;28;20030;-67
2023/08/21 05:15:56;;;;;;;3.30;1.70;;;;;;;24.14;54.54;102252.22;5006386;28;20034;-67
2023/08/21 05:18:22;;;;;;;4.35;1.83;;;;;;;24.13;54.41;102262.00;5005769;28;20095;-67
2023/08/21 05:20:48;;;;;;;3.88;1.90;;;;;;;24.11;54.49;102258.63;5006312;28;20042;-69
2023/08/21 05:23:14;;;;;;;3.70;1.80;;;;;;;24.13;54.57;102255.84;5006685;28;20052;-67
2023/08/21 05:25:39;;;;;;;4.82;2.10;;;;;;;24.13;54.68;102263.84;5006319;28;20034;-67
2023/08/21 05:28:05;;;;;;;5.25;1.85;;;;;;;24.12;54.42;102268.31;5006394;28;20044;-67
2023/08/21 05:30:31;;;;;;;4.82;1.90;;;;;;;24.13;54.43;102266.50;5006595;28;21266;-69
2023/08/21 05:32:56;;;;;;;4.43;1.77;;;;;;;24.13;54.50;102271.81;5006080;28;20103;-68
2023/08/21 05:35:21;;;;;;;6.30;2.03;;;;;;;24.12;54.80;102272.81;5005839;28;20038;-68
2023/08/21 05:37:47;;;;;;;4.22;1.63;;;;;;;24.12;54.56;102270.16;5006676;28;20112;-67
2023/08/21 05:40:12;;;;;;;4.20;1.88;;;;;;;24.11;54.97;102274.63;5006003;28;20038;-67
2023/08/21 05:42:38;;;;;;;4.78;1.70;;;;;;;24.11;54.71;102271.94;5006146;28;20065;-67
2023/08/21 05:45:04;;;;;;;4.97;1.90;;;;;;;24.10;54.76;102267.63;5005914;28;20073;-68
2023/08/21 05:47:29;;;;;;;6.22;2.00;;;;;;;24.11;54.56;102268.47;5006859;28;20050;-66
2023/08/21 05:49:54;;;;;;;3.53;1.70;;;;;;;24.11;54.89;102263.97;5005803;28;20535;-66
2023/08/21 05:52:21;;;;;;;6.70;1.90;;;;;;;24.12;54.67;102270.16;5006527;28;20038;-67
2023/08/21 05:54:47;;;;;;;6.22;2.00;;;;;;;24.11;54.83;102269.28;5006174;28;20056;-69
2023/08/21 05:57:12;;;;;;;4.30;1.73;;;;;;;24.11;55.08;102269.28;5009402;28;20483;-67
2023/08/21 05:59:44;;;;;;;5.53;1.83;;;;;;;24.09;55.15;102272.09;5009486;28;20065;-68
2023/08/21 06:02:09;;;;;;;4.68;1.50;;;;;;;24.12;54.82;102273.66;5009520;28;20034;-67
2023/08/21 06:04:34;;;;;;;4.15;1.75;;;;;;;24.11;54.87;102271.13;5009803;28;20065;-66
2023/08/21 06:06:59;;;;;;;4.90;1.83;;;;;;;24.12;54.94;102283.47;5010223;28;20037;-67
2023/08/21 06:09:25;;;;;;;6.13;1.83;;;;;;;24.11;54.97;102282.59;5009903;28;20050;-67
2023/08/21 06:11:50;;;;;;;6.00;2.13;;;;;;;24.11;54.85;102276.44;5010257;28;20073;-67
2023/08/21 06:14:15;;;;;;;4.05;1.80;;;;;;;24.11;54.83;102285.28;5009771;28;20042;-65
2023/08/21 06:16:41;;;;;;;5.00;1.83;;;;;;;24.11;55.09;102284.44;5010404;28;20040;-66
2023/08/21 06:19:06;;;;;;;4.47;2.10;;;;;;;24.12;55.05;102292.28;5009517;28;20033;-66
2023/08/21 06:21:32;;;;;;;5.38;2.00;;;;;;;24.11;54.97;102295.94;5009062;28;20112;-66
2023/08/21 06:23:57;;;;;;;4.35;1.73;;;;;;;24.12;54.99;102299.44;5008623;28;20156;-68
2023/08/21 06:26:22;;;;;;;4.50;1.70;;;;;;;24.12;54.99;102296.78;5009185;28;20125;-67
2023/08/21 06:28:48;;;;;;;5.20;1.70;;;;;;;24.11;55.37;102298.59;5009211;28;20029;-66
2023/08/21 06:31:13;;;;;;;4.05;1.95;;;;;;;24.12;55.32;102302.94;5009223;28;20037;-66
2023/08/21 06:33:38;;;;;;;4.43;1.90;;;;;;;24.11;55.41;102301.25;5009075;28;20038;-66
2023/08/21 06:36:04;;;;;;;5.90;2.07;;;;;;;24.11;55.52;102295.94;5009119;28;20036;-65
2023/08/21 06:38:29;;;;;;;6.22;2.22;;;;;;;24.11;55.36;102295.09;5009719;28;20268;-65
2023/08/21 06:40:54;;;;;;;4.30;1.70;;;;;;;24.14;55.59;102308.16;5009021;28;20030;-68
2023/08/21 06:43:21;;;;;;;4.70;1.77;;;;;;;24.16;55.06;102298.19;5009422;28;20366;-66
2023/08/21 06:45:46;;;;;;;8.23;3.38;;;;;;;24.14;54.66;102297.50;5009364;28;20215;-67
2023/08/21 06:48:12;;;;;;;7.03;3.15;;;;;;;24.15;54.55;102299.16;5008715;28;20467;-65
2023/08/21 06:50:38;;;;;;;6.85;2.30;;;;;;;24.10;54.98;102299.59;5008900;28;20041;-66
2023/08/21 06:53:04;;;;;;;5.70;2.10;;;;;;;24.09;55.01;102300.53;5008760;28;20033;-65
2023/08/21 06:55:29;;;;;;;5.65;2.25;;;;;;;24.06;55.30;102298.97;5008599;28;20497;-66
2023/08/21 06:57:54;;;;;;;4.60;2.20;;;;;;;24.07;55.43;102298.00;5008714;28;20470;-65
2023/08/21 07:00:20;;;;;;;5.60;2.22;;;;;;;24.07;55.62;102295.34;5008825;28;20124;-64
2023/08/21 07:02:45;;;;;;;7.35;2.35;;;;;;;24.07;56.00;102298.00;5008316;28;20029;-64
2023/08/21 07:05:10;;;;;;;6.27;2.10;;;;;;;24.09;55.95;102292.56;5008288;28;20034;-67
2023/08/21 07:07:36;;;;;;;5.78;1.90;;;;;;;24.09;55.86;102298.72;5007560;28;20270;-65
2023/08/21 07:10:03;;;;;;;5.25;2.10;;;;;;;24.11;55.69;102295.09;5008472;28;20385;-63
2023/08/21 07:12:28;;;;;;;4.13;1.70;;;;;;;24.13;55.85;102303.78;5008000;28;20493;-67
2023/08/21 07:14:53;;;;;;;4.60;1.90;;;;;;;24.13;56.03;102299.28;5007977;28;20049;-64
2023/08/21 07:17:19;;;;;;;7.35;1.90;;;;;;;24.14;56.36;102306.31;5008503;28;21057;-66
2023/08/21 07:19:44;;;;;;;4.43;1.90;;;;;;;24.13;56.12;102306.44;5008937;28;20117;-65
2023/08/21 07:22:09;;;;;;;5.65;1.90;;;;;;;24.14;56.22;102305.47;5008241;28;20048;-64
2023/08/21 07:24:35;;;;;;;5.13;1.73;;;;;;;24.16;56.25;102300.88;5008411;28;20398;-66
2023/08/21 07:27:00;;;;;;;5.65;1.80;;;;;;;24.17;56.31;102308.72;5008100;28;20057;-62
2023/08/21 07:29:25;;;;;;;5.10;2.03;;;;;;;24.20;56.63;102297.81;5007890;28;20029;-64
2023/08/21 07:31:51;;;;;;;8.90;2.28;;;;;;;24.29;56.68;102306.00;5007867;28;20038;-66
2023/08/21 07:34:16;;;;;;;5.20;1.88;;;;;;;24.33;56.45;102302.09;5007771;28;20029;-68
2023/08/21 07:36:44;;;;;;;5.10;1.70;;;;;;;24.36;56.27;102302.69;5008259;28;20030;-66
2023/08/21 07:39:10;;;;;;;4.68;2.03;;;;;;;24.40;56.59;102301.47;5007959;28;20109;-62
2023/08/21 07:41:35;;;;;;;6.55;1.77;;;;;;;24.43;56.39;102303.00;5007699;28;20121;-62
2023/08/21 07:44:01;;;;;;;6.45;2.10;;;;;;;24.43;56.06;102306.53;5007855;28;20026;-64
2023/08/21 07:46:26;;;;;;;9.00;2.08;;;;;;;24.45;56.09;102303.72;5007649;28;20536;-63
2023/08/21 07:48:52;;;;;;;4.65;1.77;;;;;;;24.47;56.06;102309.75;5007637;28;20022;-66
2023/08/21 07:51:18;;;;;;;5.57;1.90;;;;;;;24.48;56.35;102305.25;5007773;28;20038;-64
2023/08/21 07:53:43;;;;;;;7.10;1.90;;;;;;;24.50;55.98;102303.31;5005624;28;20095;-65
2023/08/21 07:56:09;;;;;;;6.72;1.80;;;;;;;24.52;55.77;102304.88;5008855;28;20842;-61
2023/08/21 07:58:34;;;;;;;5.93;1.60;;;;;;;24.54;55.72;102305.56;5006273;28;20061;-64
2023/08/21 08:01:01;;;;;;;6.05;1.80;;;;;;;24.56;55.49;102311.66;5006881;28;20037;-66
2023/08/21 08:03:26;;;;;;;4.43;1.60;;;;;;;24.56;55.47;102316.09;5007250;28;20176;-64
2023/08/21 08:05:52;;;;;;;13.80;2.05;;;;;;;24.56;55.73;102311.66;5006725;28;20030;-64
2023/08/21 08:08:18;;;;;;;4.95;1.73;;;;;;;24.58;55.62;102311.53;5006680;28;20394;-66
2023/08/21 08:10:44;;;;;;;4.90;1.83;;;;;;;24.56;55.68;102314.34;5006999;28;20402;-63
2023/08/21 08:13:09;;;;;;;6.07;1.95;;;;;;;24.58;55.52;102315.03;5007537;28;20061;-64
2023/08/21 08:15:35;;;;;;;5.13;1.70;;;;;;;24.61;55.32;102316.59;5006973;28;20080;-67
2023/08/21 08:18:01;;;;;;;6.78;2.05;;;;;;;24.61;55.33;102320.09;5005998;28;20391;-68
2023/08/21 08:20:29;;;;;;;4.63;1.92;;;;;;;24.62;55.24;102320.94;5006790;28;20065;-63
2023/08/21 08:22:56;;;;;;;5.10;2.28;;;;;;;24.63;55.40;102318.16;5006797;28;20520;-67
2023/08/21 08:25:22;;;;;;;4.10;2.03;;;;;;;24.65;55.48;102319.84;5006870;28;20068;-66
2023/08/21 08:27:48;;;;;;;5.75;1.85;;;;;;;24.64;55.18;102318.97;5006649;28;20060;-64
2023/08/21 08:30:15;;;;;;;5.18;2.15;;;;;;;24.66;55.67;102321.50;5005962;28;20463;-66
2023/08/21 08:32:46;;;;;;;5.18;1.80;;;;;;;24.65;55.26;102319.84;5006231;28;20034;-65
2023/08/21 08:35:14;;;;;;;3.97;1.40;;;;;;;24.66;55.30;102313.50;5006699;28;20034;-65
2023/08/21 08:37:43;;;;;;;3.83;1.55;;;;;;;24.67;55.46;102323.22;5006125;28;20401;-63
2023/08/21 08:40:11;;;;;;;3.53;1.63;;;;;;;24.68;55.41;102319.59;5005857;28;20068;-64
2023/08/21 08:42:36;;;;;;;5.20;1.70;;;;;;;24.70;55.24;102321.13;5006033;28;20036;-64
2023/08/21 08:45:03;;;;;;;5.32;1.70;;;;;;;24.72;55.14;102321.00;5006071;28;20038;-64
2023/08/21 08:47:31;;;;;;;6.15;1.73;;;;;;;24.69;54.74;102321.25;5005775;28;20100;-63
2023/08/21 08:49:58;;;;;;;8.18;1.92;;;;;;;24.69;54.38;102322.13;5005814;28;20489;-63
2023/08/21 08:52:26;;;;;;;4.93;1.60;;;;;;;24.70;54.84;102325.63;5006209;28;20092;-66
2023/08/21 08:54:55;;;;;;;4.00;1.60;;;;;;;24.71;54.55;102332.66;5005974;28;20022;-64
2023/08/21 08:57:21;;;;;;;5.55;1.70;;;;;;;24.73;54.98;102325.34;5005357;28;20049;-67
2023/08/21 08:59:46;;;;;;;6.07;1.70;;;;;;;24.73;54.45;102328.03;5006401;28;20022;-65
2023/08/21 09:02:11;;;;;;;6.28;2.10;;;;;;;24.73;54.64;102328.03;5006398;28;20038;-66
2023/08/21 09:04:37;;;;;;;6.10;1.90;;;;;;;24.75;54.51;102339.38;5005609;28;20060;-66
2023/08/21 09:07:09;;;;;;;5.63;1.73;;;;;;;24.77;54.83;102322.28;5006110;28;20477;-67
2023/08/21 09:09:44;;;;;;;4.72;1.60;;;;;;;24.77;54.63;102322.28;5006952;28;20119;-63
2023/08/21 09:12:12;;;;;;;5.20;1.70;;;;;;;24.79;54.64;102323.00;5005508;28;20084;-63
2023/08/21 09:14:39;;;;;;;4.00;1.83;;;;;;;24.79;54.82;102322.16;5006993;28;20042;-64
2023/08/21 09:17:05;;;;;;;4.55;1.55;;;;;;;24.81;54.62;102320.19;5005475;28;20386;-64
2023/08/21 09:19:30;;;;;;;6.10;1.90;;;;;;;24.81;54.91;102314.84;5004299;28;20026;-63
2023/08/21 09:21:56;;;;;;;4.80;1.77;;;;;;;24.80;54.77;102306.03;5005079;28;20030;-63
2023/08/21 09:24:21;;;;;;;4.78;1.67;;;;;;;24.80;54.50;102314.03;5004453;28;20053;-64
2023/08/21 09:26:47;;;;;;;5.32;1.83;;;;;;;24.81;54.81;102320.19;5004682;28;20446;-65
2023/08/21 09:29:12;;;;;;;5.22;1.58;;;;;;;24.80;55.02;102319.34;5005079;28;20382;-64
2023/08/21 09:31:37;;;;;;;6.55;1.50;;;;;;;24.80;54.66;102319.34;5007272;28;20467;-65
2023/08/21 09:34:07;;;;;;;4.07;1.65;;;;;;;24.81;54.91;102312.19;5008339;28;20484;-67
2023/08/21 09:36:33;;;;;;;5.53;1.77;;;;;;;24.80;54.64;102306.03;5008747;28;20029;-64
2023/08/21 09:38:59;;;;;;;4.40;1.70;;;;;;;24.79;54.96;102306.16;5007208;28;20033;-65
2023/08/21 09:41:26;;;;;;;4.68;1.45;;;;;;;24.74;54.99;102303.91;5006847;28;20033;-63
2023/08/21 09:43:51;;;;;;;4.63;1.50;;;;;;;24.74;54.85;102308.38;5010724;28;20037;-65
2023/08/21 09:46:23;;;;;;;4.20;1.35;;;;;;;24.68;54.88;102303.59;5008475;28;20379;-65
2023/08/21 09:48:49;;;;;;;4.93;1.70;;;;;;;24.70;54.96;102312.28;5010262;28;20030;-64
2023/08/21 09:51:15;;;;;;;5.97;1.50;;;;;;;24.70;54.99;102306.97;5010554;28;20448;-64
2023/08/21 09:53:40;;;;;;;4.18;1.38;;;;;;;24.67;55.03;102305.38;5009618;28;20022;-67
2023/08/21 09:56:08;;;;;;;4.15;1.38;;;;;;;24.71;54.74;102304.16;5007623;28;20692;-63
2023/08/21 09:58:35;;;;;;;7.75;1.80;;;;;;;24.75;55.13;102302.06;5008206;28;20037;-64
2023/08/21 10:01:08;;;;;;;5.38;1.60;;;;;;;24.76;54.67;102296.59;5009781;28;20034;-64
2023/08/21 10:03:36;;;;;;;6.22;1.40;;;;;;;24.78;55.13;102305.31;5039882;28;20433;-66
2023/08/21 10:06:02;;;;;;;4.50;1.40;;;;;;;24.79;54.77;102301.66;5008999;28;20490;-64
2023/08/21 10:08:28;;;;;;;5.45;1.60;;;;;;;24.80;55.03;102306.03;5008708;28;20029;-65
2023/08/21 10:10:55;;;;;;;5.18;1.65;;;;;;;24.81;55.32;102298.88;5010131;28;20034;-65
2023/08/21 10:13:20;;;;;;;3.80;1.50;;;;;;;24.83;54.84;102291.56;5008709;28;20069;-65
2023/08/21 10:15:46;;;;;;;4.68;1.45;;;;;;;24.84;55.10;102292.44;5009327;28;20112;-67
2023/08/21 10:18:29;;;;;;;4.13;1.60;;;;;;;24.83;54.82;102288.06;5009673;28;20029;-67
2023/08/21 10:20:55;;;;;;;5.47;1.57;;;;;;;24.89;54.82;102296.38;5008052;28;20032;-66
2023/08/21 10:23:28;;;;;;;5.03;1.33;;;;;;;24.87;55.20;102286.84;5007170;28;20276;-67
2023/08/21 10:26:00;;;;;;;4.03;1.33;;;;;;;24.88;54.96;102289.38;5008096;28;20126;-67
2023/08/21 10:28:50;;;;;;;5.18;1.30;;;;;;;24.84;54.91;102279.09;5007780;28;20099;-66
2023/08/21 10:31:33;;;;;;;4.60;1.50;;;;;;;24.89;54.90;102279.53;5004945;28;20038;-65
2023/08/21 10:34:12;;;;;;;3.02;1.10;;;;;;;24.91;54.98;102280.22;188734;28;10022794;-66
2023/08/21 10:36:44;;;;;;;3.95;1.30;;;;;;;24.92;55.19;102284.59;4300151;28;10002028;-66
2023/08/21 10:39:20;;;;;;;3.95;1.60;;;;;;;24.91;55.04;102285.56;4989072;28;20069;-65
2023/08/21 10:41:58;;;;;;;3.42;1.38;;;;;;;24.90;55.06;102282.06;5019884;28;20031;-63
2023/08/21 10:44:42;;;;;;;4.25;1.40;;;;;;;24.89;55.48;102283.03;4988682;28;20045;-63
2023/08/21 10:47:27;;;;;;;4.55;1.45;;;;;;;24.90;55.38;102282.06;397719;28;10021924;-66
2023/08/21 10:49:55;;;;;;;4.05;1.45;;;;;;;24.92;55.00;102277.44;4112612;28;10000941;-65
2023/08/21 10:52:23;;;;;;;4.97;1.55;;;;;;;24.94;55.14;102279.97;4969449;28;20711;-63
2023/08/21 10:54:53;;;;;;;7.05;1.63;;;;;;;24.94;55.26;102291.50;4969304;28;20423;-66
2023/08/21 10:57:19;;;;;;;4.70;1.52;;;;;;;24.94;55.37;102296.81;4970263;28;20089;-67
2023/08/21 10:59:55;;;;;;;5.72;1.33;;;;;;;24.93;55.32;102292.47;4970131;28;20031;-68
2023/08/21 11:02:21;;;;;;;4.15;1.40;;;;;;;24.94;55.15;102291.50;4989181;28;20815;-66
2023/08/21 11:04:48;;;;;;;5.15;1.50;;;;;;;24.95;55.09;102290.50;4970086;28;20082;-65
2023/08/21 11:07:13;;;;;;;3.47;1.33;;;;;;;24.97;55.19;102293.84;4970121;28;20049;-66
2023/08/21 11:09:39;;;;;;;3.95;1.60;;;;;;;24.97;55.14;102290.34;4970757;28;20027;-71
2023/08/21 11:12:09;;;;;;;5.53;1.48;;;;;;;24.95;55.38;102289.66;4969426;28;20394;-67
2023/08/21 11:14:36;;;;;;;3.25;1.25;;;;;;;24.97;55.21;102285.84;4969204;28;20022;-66
2023/08/21 11:17:01;;;;;;;4.50;1.67;;;;;;;24.97;55.25;102283.19;4968093;28;20070;-68
2023/08/21 11:19:30;;;;;;;4.75;1.50;;;;;;;24.98;55.30;102279.56;4968531;28;20066;-69
2023/08/21 11:21:55;;;;;;;6.53;1.52;;;;;;;24.99;55.53;102275.91;4968249;28;20619;-68